Latest Weather Observations for Kyabram

IDV60801

Issued at 6:35 pm EST Monday 21 April 2014 (issued every 30 minutes, with the page automatically refreshed every 10 minutes)

About weather observations | Map of weather stations | Latest weather observations for VIC | Other Formats
Station Details ID: 080091 Name: KYABRAM Lat: -36.34 Lon: 145.06 Height: 105.0 m
Data from the previous 72 hours. | See also: Recent months at Kyabram
Date/Time
EST
Temp
°C
App
Temp
°C
Dew
Point
Rel
Hum
%
Delta-T
°C
Wind Press
QNH
hPa
Press
MSL
hPa
Rain
since 9 am
mm
Dir
 
Spd
km/h
Gust
km/h
Spd
kts
Gust
kts
21/06:30pm 14.7 12.4 7.3 61 3.7 NE 9 15 5 8 - - 0.0
21/06:00pm 15.2 12.8 7.2 59 4.0 NE 9 13 5 7 - - 0.0
21/05:30pm 16.6 14.3 7.5 55 4.6 NE 9 13 5 7 - - 0.0
21/05:00pm 18.2 15.9 7.6 50 5.4 NE 9 15 5 8 - - 0.0
21/04:30pm 18.8 15.7 7.3 47 5.8 NNE 13 24 7 13 - - 0.0
21/04:00pm 18.8 15.7 7.3 47 5.8 NNE 13 22 7 12 - - 0.0
21/03:30pm 18.8 15.7 7.3 47 5.8 N 13 20 7 11 - - 0.0
21/03:00pm 19.2 15.7 7.3 46 6.1 N 15 22 8 12 - - 0.0
21/02:30pm 18.8 15.4 7.6 48 5.7 N 15 22 8 12 - - 0.0
21/02:00pm 18.2 14.8 7.6 50 5.4 NNE 15 24 8 13 - - 0.0
21/01:30pm 18.2 14.7 7.3 49 5.5 NNE 15 24 8 13 - - 0.0
21/01:00pm 17.4 13.3 6.0 47 5.6 N 17 26 9 14 - - 0.0
21/12:30pm 17.3 13.8 7.1 51 5.1 NNE 15 26 8 14 - - 0.0
21/12:00pm 17.5 14.5 7.5 52 5.1 NNE 13 22 7 12 - - 0.0
21/11:30am 16.4 12.9 7.1 54 4.6 N 15 22 8 12 - - 0.0
21/11:00am 15.1 12.4 7.4 60 3.8 NNE 11 17 6 9 - - 0.0
21/10:30am 13.8 11.0 6.9 63 3.4 NNE 11 17 6 9 - - 0.0
21/10:00am 13.9 11.3 7.7 66 3.1 NNE 11 17 6 9 - - 0.0
21/09:30am 12.1 9.7 6.8 70 2.5 NNE 9 15 5 8 - - 0.0
21/09:00am 11.8 9.6 7.7 76 2.0 NNE 9 17 5 9 - - 0.0
21/08:30am 10.1 8.8 7.7 85 1.2 ENE 4 11 2 6 - - 0.0
21/08:00am 8.6 6.4 6.2 85 1.1 ENE 7 13 4 7 - - 0.0
21/07:30am 7.2 4.7 6.5 95 0.3 ENE 9 11 5 6 - - 0.0
21/07:00am 5.5 2.7 5.1 97 0.2 E 9 11 5 6 - - 0.0
21/06:30am 5.5 3.1 5.2 98 0.1 E 7 11 4 6 - - 0.0
21/06:00am 5.5 3.1 5.2 98 0.1 ENE 7 11 4 6 - - 0.0
21/05:30am 4.8 3.2 4.7 99 0.0 E 2 9 1 5 - - 0.0
21/05:00am 5.0 3.8 4.7 98 0.1 CALM 0 0 0 0 - - 0.0
21/04:30am 5.8 4.3 5.1 95 0.3 E 2 6 1 3 - - 0.0
21/04:00am 6.4 4.0 5.2 92 0.5 E 7 11 4 6 - - 0.0
21/03:30am 6.7 3.9 5.3 91 0.6 ENE 9 11 5 6 - - 0.0
21/03:00am 6.6 4.2 5.4 92 0.5 E 7 9 4 5 - - 0.0
21/02:30am 6.0 3.6 5.1 94 0.4 E 7 9 4 5 - - 0.0
21/02:00am 6.4 4.1 5.0 91 0.6 E 6 7 3 4 - - 0.0
21/01:30am 7.0 4.8 5.5 90 0.7 E 6 7 3 4 - - 0.0
21/01:00am 7.8 5.5 5.8 87 0.9 ENE 7 9 4 5 - - 0.0
21/12:30am 7.9 5.9 6.2 89 0.8 ENE 6 9 3 5 - - 0.0
21/12:00am 8.2 6.0 6.0 86 1.0 ENE 7 9 4 5 - - 0.0
 
Date/Time
EST
Temp
°C
App
Temp
°C
Dew
Point
Rel
Hum
%
Delta-T
°C
Wind Press
QNH
hPa
Press
MSL
hPa
Rain
since 9 am
mm
Dir
 
Spd
km/h
Gust
km/h
Spd
kts
Gust
kts
20/11:30pm 8.3 7.4 5.9 85 1.1 CALM 0 0 0 0 - - 0.0
20/11:00pm 8.8 7.5 6.2 84 1.2 NNE 2 7 1 4 - - 0.0
20/10:30pm 9.5 7.3 6.0 79 1.6 NNE 7 11 4 6 - - 0.0
20/10:00pm 9.2 6.9 5.8 79 1.6 N 7 11 4 6 - - 0.0
20/09:30pm 9.5 8.2 6.2 80 1.5 NNE 2 6 1 3 - - 0.0
20/09:00pm 9.7 7.5 6.2 79 1.6 NNE 7 9 4 5 - - 0.0
20/08:30pm 9.9 7.9 6.4 79 1.6 NNE 6 9 3 5 - - 0.0
20/08:00pm 10.3 8.2 6.6 78 1.7 NNE 7 9 4 5 - - 0.0
20/07:30pm 10.7 8.5 6.3 74 2.1 N 7 9 4 5 - - 0.0
20/07:00pm 9.8 8.9 6.2 78 1.7 CALM 0 0 0 0 - - 0.0
20/06:30pm 11.1 10.3 6.6 74 2.1 CALM 0 0 0 0 - - 0.0
20/06:00pm 12.2 11.4 6.3 67 2.8 CALM 0 0 0 0 - - 0.0
20/05:30pm 14.3 13.5 6.4 59 3.8 CALM 0 0 0 0 - - 0.0
20/05:00pm 16.0 15.1 5.9 51 4.9 CALM 0 0 0 0 - - 0.0
20/04:30pm 16.6 14.5 5.6 48 5.3 WSW 6 9 3 5 - - 0.0
20/04:00pm 16.7 14.6 5.9 49 5.3 W 6 11 3 6 - - 0.0
20/03:30pm 16.9 14.2 5.5 47 5.5 WSW 9 13 5 7 - - 0.0
20/03:00pm 17.1 14.7 5.4 46 5.7 WNW 7 15 4 8 - - 0.0
20/02:30pm 17.0 15.4 6.2 49 5.3 W 4 9 2 5 - - 0.0
20/02:00pm 17.5 15.0 6.4 48 5.5 NW 9 19 5 10 - - 0.0
20/01:30pm 17.0 14.4 5.9 48 5.4 WNW 9 13 5 7 - - 0.0
20/01:00pm 16.2 13.3 6.3 52 4.8 W 11 17 6 9 - - 0.0
20/12:30pm 15.5 12.7 6.8 56 4.3 NW 11 17 6 9 - - 0.0
20/12:00pm 15.3 12.3 7.6 60 3.8 NNW 13 19 7 10 - - 0.0
20/11:30am 14.6 12.0 7.9 64 3.4 NNW 11 17 6 9 - - 0.0
20/11:00am 14.1 12.1 8.7 70 2.7 N 9 13 5 7 - - 0.0
20/10:30am 13.1 11.0 8.2 72 2.4 N 9 13 5 7 - - 0.0
20/10:00am 12.6 11.3 9.8 83 1.4 N 7 11 4 6 - - 0.0
20/09:30am 11.6 11.2 9.9 89 0.9 NW 2 9 1 5 - - 0.0
20/09:00am 10.2 10.1 9.4 95 0.4 CALM 0 0 0 0 - - 0.0
20/08:30am 9.1 8.9 9.0 99 0.0 CALM 0 0 0 0 - - 0.0
20/08:00am 8.2 7.8 8.1 99 0.0 CALM 0 0 0 0 - - 0.0
20/07:30am 7.3 6.7 7.2 99 0.0 CALM 0 0 0 0 - - 0.0
20/07:00am 6.6 5.8 6.5 99 0.0 CALM 0 0 0 0 - - 0.0
20/06:30am 6.0 5.1 5.9 99 0.0 CALM 0 0 0 0 - - 0.0
20/06:00am 5.4 4.3 5.3 99 0.0 CALM 0 0 0 0 - - 0.0
20/05:30am 4.1 2.8 4.0 99 0.0 CALM 0 0 0 0 - - 0.0
20/05:00am 3.9 2.5 3.8 99 0.0 CALM 0 0 0 0 - - 0.0
20/04:30am 3.9 2.5 3.8 99 0.0 CALM 0 0 0 0 - - 0.0
20/04:00am 4.1 2.8 4.0 99 0.0 CALM 0 0 0 0 - - 0.0
20/03:30am 4.0 2.7 3.9 99 0.0 CALM 0 0 0 0 - - 0.0
20/03:00am 4.4 3.1 4.3 99 0.0 CALM 0 0 0 0 - - 0.0
20/02:30am 4.6 3.4 4.5 99 0.0 CALM 0 0 0 0 - - 0.0
20/02:00am 4.8 3.6 4.5 98 0.1 CALM 0 0 0 0 - - 0.0
20/01:30am 5.3 4.2 5.0 98 0.1 CALM 0 0 0 0 - - 0.0
20/01:00am 5.2 4.0 4.8 97 0.2 CALM 0 0 0 0 - - 0.0
20/12:30am 5.5 4.4 5.1 97 0.2 CALM 0 0 0 0 - - 0.0
20/12:00am 5.6 4.5 5.0 96 0.3 CALM 0 0 0 0 - - 0.0
 
Date/Time
EST
Temp
°C
App
Temp
°C
Dew
Point
Rel
Hum
%
Delta-T
°C
Wind Press
QNH
hPa
Press
MSL
hPa
Rain
since 9 am
mm
Dir
 
Spd
km/h
Gust
km/h
Spd
kts
Gust
kts
19/11:30pm 5.6 4.5 4.9 95 0.3 CALM 0 0 0 0 - - 0.0
19/11:00pm 6.0 4.9 5.1 94 0.4 CALM 0 0 0 0 - - 0.0
19/10:30pm 6.7 5.7 5.7 93 0.4 CALM 0 0 0 0 - - 0.0
19/10:00pm 7.1 6.0 5.3 88 0.8 CALM 0 0 0 0 - - 0.0
19/09:30pm 7.6 6.6 5.4 86 1.0 CALM 0 0 0 0 - - 0.0
19/09:00pm 8.2 7.2 5.8 85 1.1 CALM 0 0 0 0 - - 0.0
19/08:30pm 7.6 6.6 5.4 86 1.0 CALM 0 0 0 0 - - 0.0
19/08:00pm 8.4 7.4 5.7 83 1.2 CALM 0 0 0 0 - - 0.0
19/07:30pm 9.2 8.4 6.3 82 1.3 CALM 0 0 0 0 - - 0.0
19/07:00pm 9.6 8.6 5.6 76 1.8 CALM 0 0 0 0 - - 0.0
19/06:30pm 10.8 9.9 6.0 72 2.2 CALM 0 0 0 0 - - 0.0
19/06:00pm 12.3 11.4 5.9 65 3.0 CALM 0 0 0 0 - - 0.0
19/05:30pm 14.2 12.1 5.8 57 4.0 S 6 9 3 5 - - 0.0
19/05:00pm 15.5 13.6 6.8 56 4.3 S 6 11 3 6 - - 0.0
19/04:30pm 16.1 12.7 6.0 51 4.9 S 13 20 7 11 - - 0.0
19/04:00pm 16.2 14.0 6.1 51 4.9 SSE 7 13 4 7 - - 0.0
19/03:30pm 17.8 15.5 7.5 51 5.2 S 9 17 5 9 - - 0.0
19/03:00pm 17.1 15.0 6.6 50 5.2 SSW 7 11 4 6 - - 0.0
19/02:30pm 16.4 13.7 5.7 49 5.2 SSE 9 15 5 8 - - 0.0
19/02:00pm 17.1 14.6 6.6 50 5.2 S 9 19 5 10 - - 0.0
19/01:30pm 16.4 14.1 5.7 49 5.2 SSE 7 15 4 8 - - 0.0
19/01:00pm 17.0 14.6 6.8 51 5.1 S 9 15 5 8 - - 0.0
19/12:30pm 17.0 14.1 6.5 50 5.2 SW 11 24 6 13 - - 0.0
19/12:00pm 16.5 13.5 6.1 50 5.1 SSW 11 19 6 10 - - 0.0
19/11:30am 15.5 12.6 6.5 55 4.4 S 11 17 6 9 - - 0.0
19/11:00am 14.8 11.1 6.4 57 4.1 S 15 20 8 11 - - 0.0
19/10:30am 14.2 11.4 7.0 62 3.5 S 11 17 6 9 - - 0.0
19/10:00am 13.1 9.4 6.2 63 3.3 SSW 15 20 8 11 - - 0.0
19/09:30am 12.6 9.3 6.4 66 3.0 SSW 13 20 7 11 - - 0.0
19/09:00am 11.0 8.7 7.3 78 1.8 SSW 9 17 5 9 - - 0.0
19/08:30am 9.6 7.4 7.9 89 0.8 SSW 9 13 5 7 - - 0.0
19/08:00am 7.6 5.9 7.5 99 0.0 SW 6 9 3 5 - - 0.0
19/07:30am 5.5 3.7 5.4 99 0.0 SW 4 7 2 4 - - 0.0
19/07:00am 4.3 3.0 4.2 99 0.0 CALM 0 0 0 0 - - 0.0
19/06:30am 5.0 3.9 4.9 99 0.0 CALM 0 0 0 0 - - 0.0
19/06:00am 5.0 2.7 4.7 98 0.1 WSW 6 7 3 4 - - 0.0
19/05:30am 5.8 3.6 5.5 98 0.1 SW 6 7 3 4 - - 0.0
19/05:00am 6.1 3.9 5.5 96 0.3 SW 6 7 3 4 - - 0.0
19/04:30am 6.2 4.0 5.3 94 0.4 WSW 6 9 3 5 - - 0.0
19/04:00am 6.3 4.0 4.9 91 0.6 SSW 6 7 3 4 - - 0.0
19/03:30am 7.4 5.1 5.7 89 0.8 WSW 7 13 4 7 - - 0.0
19/03:00am 7.1 4.8 5.9 92 0.5 WSW 7 11 4 6 - - 0.0
19/02:30am 6.5 5.4 5.1 91 0.6 CALM 0 6 0 3 - - 0.0
19/02:00am 7.4 6.4 5.7 89 0.8 CALM 0 4 0 2 - - 0.0
19/01:30am 8.0 6.6 5.3 83 1.2 SSW 2 6 1 3 - - 0.0
19/01:00am 8.6 6.3 5.9 83 1.2 SW 7 13 4 7 - - 0.0
19/12:30am 8.7 6.4 5.8 82 1.3 SSW 7 11 4 6 - - 0.0
19/12:00am 9.4 7.2 6.1 80 1.5 SW 7 13 4 7 - - 0.0
 
Date/Time
EST
Temp
°C
App
Temp
°C
Dew
Point
Rel
Hum
%
Delta-T
°C
Wind Press
QNH
hPa
Press
MSL
hPa
Rain
since 9 am
mm
Dir
 
Spd
km/h
Gust
km/h
Spd
kts
Gust
kts
18/11:30pm 9.5 7.4 6.0 79 1.6 SW 6 9 3 5 - - 0.0
18/11:00pm 10.0 7.4 6.2 77 1.8 SSW 9 15 5 8 - - 0.0
18/10:30pm 10.7 8.1 6.3 74 2.1 SSW 9 13 5 7 - - 0.0
18/10:00pm 11.2 9.0 6.1 71 2.4 SW 7 11 4 6 - - 0.0
18/09:30pm 11.0 8.4 6.0 71 2.3 SSW 9 13 5 7 - - 0.0
18/09:00pm 11.5 8.5 5.8 68 2.7 SW 11 17 6 9 - - 0.0
18/08:30pm 12.2 9.0 5.1 62 3.3 SSW 11 15 6 8 - - 0.0
18/08:00pm 12.5 9.8 5.7 63 3.2 SSW 9 13 5 7 - - 0.0
18/07:30pm 12.8 9.5 4.8 58 3.7 SSW 11 17 6 9 - - 0.0
18/07:00pm 13.2 10.8 5.1 58 3.8 SW 7 11 4 6 - - 0.0

Other Formats:

Comma delimited format used in spreadsheet applications
http://www.bom.gov.au/fwo/IDV60801/IDV60801.95833.axf

JavaScript Object Notation format (JSON) in row-major order
http://www.bom.gov.au/fwo/IDV60801/IDV60801.95833.json